3AR9 weather

Quinn Field
Paragould, Arkansas, United States

Public forecast

Using degrees Fahrenheit for public forecast. Weather courtesy of forecast.io.

METAR (pilot weather report)

Closest report is Kennett Memorial Airport, 18.8 nm (34.8 km) NE. Retrieved 2019/05/25 06:35 UTC (0 seconds ago):

KTKX 250635Z AUTO 17004KT 7SM CLR 23/22 A3004 RMK AO2

TAF (pilot weather forecast)

Closest forecast is Jonesboro Municipal Airport, 19.3 nm (35.7 km) SW. Retrieved 2019/05/25 06:22 UTC (59 seconds ago):

TAF KJBR 250520Z 2506/2606 19005KT P6SM SKC FM251500 22012G19KT P6SM FEW050 FM260100 20006KT P6SM SKC